Aktualne dane pomiarowe

Uwaga, wersja testowa! Automatyczne pobieranie danych za pomocą narzędzi lub skryptów to umożliwiających jest zabronione.

Dane meteo z obszaru Polski uzyskane na podstawie depesz SYNOP pobieranych co godzinę z NWS. Najedź myszką na symbol przedstawiony w tabeli, aby uzyskać informacje co do jego znaczenia. Prosimy pamiętać, że to testowa wersja strony, która jeszcze nie jest ukończona. Stworzono również jest krótki FAQ dotyczący korzystania z tej podstrony Anomalie temperatury w chwili obecnej odniesione są do okresu referencyjnego 1951-2016. Okres ten będzie później zmieniony na 1981-2010. Kliknij ikonę aby pobrać plik CSV. Kliknij ikonę aby wygenerować mapę synoptyczną dla danego terminu.

Wybierz Datę:    

        

Bielsko-Biała (12600)

Dane terminowe dla wybranej stacji. Kliknij datę, aby otrzymać dane z tego terminu dla wszystkich stacji.

TemperaturaZachmurzenieWiatrCiśnienieOpadyPogoda
 Data t td wb tx tn tg rh  Nt Nl Cl Cm Ch ws wd g1 g2 wx mslp ppp ch 24h 12h t ww ww w1 w2  
2019-07-12 23:00:00 14.9 12.0 12.9--- 8340.0wxwxwxwx1wx--11011.3 964.5 -0.1---------
2019-07-12 22:00:00 14.8 11.9 12.8--- 8340.0wxwxwxwx0----1011.4 964.6 -0.1---------
2019-07-12 21:00:00 14.9 11.9 12.9--- 8230.0wxwxwxwx1wx--11011.4 964.6 0.2---------
2019-07-12 20:00:00 15.6 11.8 13.1--- 7840.0wxwxwxwx2wx--21011.3 964.6 0.4---------
2019-07-12 19:00:00 16.8 11.5 13.4--- 7140.0wxwxwxwx1wx--11011.2 964.7 0.4---------
2019-07-12 18:00:00 17.6 11.8 13.9 22.3 16.2- 6940.0wxwxwxwx1wx--11010.8 964.4 0.0--12wx-w1--
2019-07-12 17:00:00 18.3 11.6 14.1--- 6540.0wxwxwxwx3wx--31010.5 964.2 -0.4---------
2019-07-12 16:00:00 18.8 10.9 13.9--- 6040.0wxwxwxwx4wx--41010.5 964.3 -0.4---------
2019-07-12 15:00:00 19.2 11.0 14.2--- 5940.0wxwxwx4wx--41010.5 964.4 -0.1---wx-w1--
2019-07-12 14:00:00 19.2 9.1 13.3--- 5240.0wxwxwxwx5wx--51010.7 964.6 -0.1---wx---
2019-07-12 13:00:00 18.6 10.7 13.8--- 6030.0wxwxwx4wx--41010.9 964.7 -0.4---wx---
2019-07-12 12:00:00 20.4 8.4 13.5--- 4640.0wxwxwxwxwx4wx-941010.4 964.5 -0.8--6wx---
2019-07-12 11:00:00 21.4 7.2 13.4--- 4040.0wxwxwxwx2wx--21010.5 964.7 -0.7---------
2019-07-12 10:00:00 20.9 7.8 13.5--- 4340.0wxwxwxwx2wx--21011.0 965.1 -0.6---------
2019-07-12 09:00:00 20.4 6.3 12.6--- 4040.0wxwxwxwx3wx---1011.3 965.3 -0.5---------
2019-07-12 08:00:00 21.0 7.6 13.4--- 4240.0wxwxwxwxwx2wx--21011.3 965.4 -0.3---------
2019-07-12 07:00:00 18.9 8.5 12.9--- 5140.0wx-wxwx2wx--21011.9 965.7 0.0---------
2019-07-12 06:00:00 16.2 8.4 11.6 17.9 8.3 7 6040.0wx-wxwx2wx--21012.5 965.8 0.0 8.5 0.012----- 6.6
2019-07-12 05:00:00 14.2 7.9 10.4--- 6640.0wx-wxwx3wx---1012.7 965.7 -0.1---------
2019-07-12 04:00:00 11.9 7.2 9.0--- 7350.0wx-wx3wx--31013.1 965.7 -0.2---------
2019-07-12 03:00:00 9.4 6.5 7.6--- 8250.0wx-wxwx3wx--31013.6 965.8 -0.4---------
2019-07-12 02:00:00 9.0 6.6 7.4--- 8530.0wx-wxwx3wx--31013.7 965.8 -0.8---------
2019-07-12 01:00:00 8.6 6.4 7.2--- 8630.0wx-wx3wx--31013.9 965.9 -0.8---------
2019-07-12 00:00:00 9.1 6.9 7.7--- 8630.0wx-wx3wx--31014.1 966.2 -0.4- 0.06------
2019-07-11 23:00:00 10.5 6.8 8.2--- 7830.0wx-wx3wx--31014.3 966.6 0.0---------
2019-07-11 22:00:00 11.7 6.8 8.7--- 7230.0wx-wx3wx--31014.2 966.7 0.5---------
2019-07-11 21:00:00 11.2 6.9 8.6--- 7530.0wx-wxwx3wx--31014.2 966.6 0.7---------
2019-07-11 20:00:00 13.5 6.8 9.6--- 6430.0wx-wx2wx--21013.8 966.6 0.8---------
2019-07-11 19:00:00 15.1 6.6 10.3--- 5740.0wx-wx2wx--21013.1 966.2 0.6---------
2019-07-11 18:00:00 17.9 5.8 11.3 20.4 11.5- 4550.0wxwxwxwx2wx--21012.3 965.9 0.1- 9.012------
2019-07-11 17:00:00 18.8 5.6 11.6--- 4240.0wxwxwx3wx--31012.0 965.8 0.2---------
2019-07-11 16:00:00 19.6 5.3 11.9--- 3940.0wxwxwx4wx--41011.7 965.6 -0.1---------
2019-07-11 15:00:00 19.4 5.8 12.0--- 4140.0wxwxwx4wx--41011.9 965.8 0.0---------
2019-07-11 14:00:00 20.0 6.7 12.6--- 4240.0wxwxwx2wx--21011.6 965.6 -0.4---------
2019-07-11 13:00:00 18.8 9.6 13.3--- 5540.0wxwxwx2wx--21011.9 965.7 -0.3---------
2019-07-11 12:00:00 17.1 9.3 12.4--- 6030.0wxwxwxwx3wx--31012.3 965.8 -0.5- 9.06wx-w1--
2019-07-11 11:00:00 15.0 11.2 12.5--- 7830.0wxwxwx5wx--51012.9 966.0 -0.7---wx-w1--
2019-07-11 10:00:00 16.0 11.2 12.9--- 7340.0wxwxwx3wx--31012.7 966.0 -0.8---wx---
2019-07-11 09:00:00 15.0 11.6 12.7--- 8040.0wxwxwxwx2wx--21013.2 966.3 -0.5---wx-w1--
2019-07-11 08:00:00 14.5 10.1 11.7--- 7520.0wxwxwx3wx--31013.7 966.7 0.3---wx---
2019-07-11 07:00:00 14.2 9.8 11.4--- 7530.0wxwxwxwx4wx---1013.9 966.8 0.1---------
2019-07-11 06:00:00 13.4 10.0 11.2 14.2 11.2 10 8030.0wxwxwxwx5wx--51014.0 966.8 0.1 1.7 0.812wx-w1- 4.3
2019-07-11 05:00:00 12.9 10.1 11.0--- 8340.0wxwxwxwx4wx--41013.7 966.4 -0.3---------
2019-07-11 04:00:00 12.6 10.0 10.9--- 8440.0wxwxwx2wx--21014.0 966.7 -0.4---wx-w1--
2019-07-11 03:00:00 13.3 8.8 10.5--- 7450.0wxwxwx4wx--41013.9 966.7 -0.9---wx---
2019-07-11 02:00:00 13.7 8.5 10.5--- 7150.0wxwxwx5wx--51013.8 966.7 -1.0---------
2019-07-11 01:00:00 12.2 9.0 10.1--- 8150.0wx-wx3wx--31014.5 967.1 -1.1---------
2019-07-11 00:00:00 11.3 8.3 9.4--- 8250.0wx-wx3wx--31015.2 967.6 -0.7- 0.76wx-w1--
1.1 ms

 

Print Friendly, PDF & Email